sensor_id;sensor_type;location;lat;lon;timestamp;pressure;altitude;pressure_sealevel;temperature;humidity
83843;BME280;73869;52.336;21.182;2024-03-02T00:00:30;100395.88;;;7.04;90.82
83843;BME280;73869;52.336;21.182;2024-03-02T00:02:57;100388.13;;;6.95;91.52
83843;BME280;73869;52.336;21.182;2024-03-02T00:05:25;100388.09;;;6.88;91.55
83843;BME280;73869;52.336;21.182;2024-03-02T00:07:53;100383.94;;;6.86;92.11
83843;BME280;73869;52.336;21.182;2024-03-02T00:10:22;100388.13;;;6.95;91.58
83843;BME280;73869;52.336;21.182;2024-03-02T00:12:50;100391.81;;;6.87;92.11
83843;BME280;73869;52.336;21.182;2024-03-02T00:15:37;100384.53;;;6.88;92.13
83843;BME280;73869;52.336;21.182;2024-03-02T00:18:06;100382.78;;;6.73;93.00
83843;BME280;73869;52.336;21.182;2024-03-02T00:20:35;100378.78;;;6.69;92.38
83843;BME280;73869;52.336;21.182;2024-03-02T00:23:03;100374.69;;;6.73;92.65
83843;BME280;73869;52.336;21.182;2024-03-02T00:25:37;100373.09;;;6.58;92.61
83843;BME280;73869;52.336;21.182;2024-03-02T00:28:04;100378.19;;;6.67;92.45
83843;BME280;73869;52.336;21.182;2024-03-02T00:30:51;100371.03;;;6.60;92.83
83843;BME280;73869;52.336;21.182;2024-03-02T00:33:19;100373.94;;;6.58;93.10
83843;BME280;73869;52.336;21.182;2024-03-02T00:35:48;100378.25;;;6.53;93.32
83843;BME280;73869;52.336;21.182;2024-03-02T00:38:15;100374.25;;;6.49;93.91
83843;BME280;73869;52.336;21.182;2024-03-02T00:40:42;100376.50;;;6.45;93.54
83843;BME280;73869;52.336;21.182;2024-03-02T00:43:22;100370.47;;;6.43;93.24
83843;BME280;73869;52.336;21.182;2024-03-02T00:45:56;100372.84;;;6.32;94.31
83843;BME280;73869;52.336;21.182;2024-03-02T00:48:23;100372.41;;;6.28;93.97
83843;BME280;73869;52.336;21.182;2024-03-02T00:50:52;100371.78;;;6.26;94.27
83843;BME280;73869;52.336;21.182;2024-03-02T00:53:21;100370.47;;;6.22;93.78
83843;BME280;73869;52.336;21.182;2024-03-02T00:55:50;100364.41;;;6.35;93.57
83843;BME280;73869;52.336;21.182;2024-03-02T00:58:16;100365.00;;;6.37;94.12
83843;BME280;73869;52.336;21.182;2024-03-02T01:00:43;100373.03;;;6.30;93.53
83843;BME280;73869;52.336;21.182;2024-03-02T01:03:10;100373.63;;;6.26;93.58
83843;BME280;73869;52.336;21.182;2024-03-02T01:05:41;100361.13;;;6.18;93.88
83843;BME280;73869;52.336;21.182;2024-03-02T01:08:09;100378.09;;;6.19;94.62
83843;BME280;73869;52.336;21.182;2024-03-02T01:10:36;100375.59;;;6.17;93.92
83843;BME280;73869;52.336;21.182;2024-03-02T01:13:03;100376.19;;;6.13;94.17
83843;BME280;73869;52.336;21.182;2024-03-02T01:15:30;100352.81;;;5.99;94.34
83843;BME280;73869;52.336;21.182;2024-03-02T01:17:58;100364.88;;;6.03;95.02
83843;BME280;73869;52.336;21.182;2024-03-02T01:20:25;100354.69;;;5.98;94.36
83843;BME280;73869;52.336;21.182;2024-03-02T01:22:52;100356.66;;;6.11;94.75
83843;BME280;73869;52.336;21.182;2024-03-02T01:25:20;100364.22;;;6.01;94.46
83843;BME280;73869;52.336;21.182;2024-03-02T01:27:47;100350.19;;;6.05;95.32
83843;BME280;73869;52.336;21.182;2024-03-02T01:30:14;100354.47;;;6.00;95.08
83843;BME280;73869;52.336;21.182;2024-03-02T01:32:40;100349.22;;;5.92;95.24
83843;BME280;73869;52.336;21.182;2024-03-02T01:35:07;100356.66;;;5.90;95.08
83843;BME280;73869;52.336;21.182;2024-03-02T01:37:34;100349.41;;;5.90;95.09
83843;BME280;73869;52.336;21.182;2024-03-02T01:40:01;100358.34;;;5.91;95.42
83843;BME280;73869;52.336;21.182;2024-03-02T01:42:36;100340.03;;;5.86;96.04
83843;BME280;73869;52.336;21.182;2024-03-02T01:45:04;100351.59;;;6.01;95.25
83843;BME280;73869;52.336;21.182;2024-03-02T01:47:31;100347.28;;;5.86;95.19
83843;BME280;73869;52.336;21.182;2024-03-02T01:49:59;100344.31;;;5.81;94.81
83843;BME280;73869;52.336;21.182;2024-03-02T01:52:26;100336.75;;;5.76;95.82
83843;BME280;73869;52.336;21.182;2024-03-02T01:54:53;100344.34;;;5.66;95.11
83843;BME280;73869;52.336;21.182;2024-03-02T01:57:20;100341.47;;;5.68;95.75
83843;BME280;73869;52.336;21.182;2024-03-02T01:59:48;100340.72;;;5.59;95.53
83843;BME280;73869;52.336;21.182;2024-03-02T02:02:16;100340.72;;;5.59;95.47
83843;BME280;73869;52.336;21.182;2024-03-02T02:04:43;100334.69;;;5.57;95.34
83843;BME280;73869;52.336;21.182;2024-03-02T02:07:10;100334.94;;;5.62;95.43
83843;BME280;73869;52.336;21.182;2024-03-02T02:09:37;100342.19;;;5.62;95.39
83843;BME280;73869;52.336;21.182;2024-03-02T02:12:04;100345.53;;;5.64;95.88
83843;BME280;73869;52.336;21.182;2024-03-02T02:14:32;100340.53;;;5.61;95.55
83843;BME280;73869;52.336;21.182;2024-03-02T02:17:00;100347.56;;;5.62;95.49
83843;BME280;73869;52.336;21.182;2024-03-02T02:19:27;100343.88;;;5.63;95.19
83843;BME280;73869;52.336;21.182;2024-03-02T02:21:55;100339.88;;;5.59;96.40
83843;BME280;73869;52.336;21.182;2024-03-02T02:24:22;100337.38;;;5.57;95.73
83843;BME280;73869;52.336;21.182;2024-03-02T02:26:48;100340.25;;;5.56;95.41
83843;BME280;73869;52.336;21.182;2024-03-02T02:29:15;100332.75;;;5.51;95.69
83843;BME280;73869;52.336;21.182;2024-03-02T02:31:42;100332.94;;;5.49;96.90
83843;BME280;73869;52.336;21.182;2024-03-02T02:34:09;100332.09;;;5.49;96.64
83843;BME280;73869;52.336;21.182;2024-03-02T02:36:37;100336.66;;;5.48;95.74
83843;BME280;73869;52.336;21.182;2024-03-02T02:39:08;100326.81;;;5.41;96.29
83843;BME280;73869;52.336;21.182;2024-03-02T02:41:36;100329.91;;;5.38;96.06
83843;BME280;73869;52.336;21.182;2024-03-02T02:44:03;100319.13;;;5.38;96.56
83843;BME280;73869;52.336;21.182;2024-03-02T02:46:29;100327.94;;;5.32;96.36
83843;BME280;73869;52.336;21.182;2024-03-02T02:48:56;100327.13;;;5.31;96.28
83843;BME280;73869;52.336;21.182;2024-03-02T02:51:23;100326.56;;;5.36;96.48
83843;BME280;73869;52.336;21.182;2024-03-02T02:53:50;100323.22;;;5.34;96.51
83843;BME280;73869;52.336;21.182;2024-03-02T02:56:18;100328.13;;;5.30;96.07
83843;BME280;73869;52.336;21.182;2024-03-02T02:58:45;100325.72;;;5.21;96.07
83843;BME280;73869;52.336;21.182;2024-03-02T03:01:12;100330.31;;;5.20;96.85
83843;BME280;73869;52.336;21.182;2024-03-02T03:03:38;100323.78;;;5.15;96.93
83843;BME280;73869;52.336;21.182;2024-03-02T03:06:06;100319.25;;;5.15;95.87
83843;BME280;73869;52.336;21.182;2024-03-02T03:08:32;100320.72;;;5.18;95.68
83843;BME280;73869;52.336;21.182;2024-03-02T03:10:59;100318.59;;;5.13;95.67
83843;BME280;73869;52.336;21.182;2024-03-02T03:13:27;100310.53;;;5.13;96.80
83843;BME280;73869;52.336;21.182;2024-03-02T03:15:54;100306.16;;;5.12;96.50
83843;BME280;73869;52.336;21.182;2024-03-02T03:18:21;100313.94;;;5.07;95.62
83843;BME280;73869;52.336;21.182;2024-03-02T03:20:47;100308.56;;;5.07;95.66
83843;BME280;73869;52.336;21.182;2024-03-02T03:23:14;100315.34;;;5.18;96.05
83843;BME280;73869;52.336;21.182;2024-03-02T03:25:42;100314.59;;;5.09;96.42
83843;BME280;73869;52.336;21.182;2024-03-02T03:28:09;100303.28;;;4.99;96.11
83843;BME280;73869;52.336;21.182;2024-03-02T03:30:37;100303.75;;;4.88;96.32
83843;BME280;73869;52.336;21.182;2024-03-02T03:33:05;100300.22;;;4.88;96.50
83843;BME280;73869;52.336;21.182;2024-03-02T03:35:31;100303.75;;;4.88;96.50
83843;BME280;73869;52.336;21.182;2024-03-02T03:37:58;100294.41;;;4.84;97.15
83843;BME280;73869;52.336;21.182;2024-03-02T03:40:25;100295.22;;;4.85;96.03
83843;BME280;73869;52.336;21.182;2024-03-02T03:42:52;100296.44;;;4.82;96.19
83843;BME280;73869;52.336;21.182;2024-03-02T03:45:18;100302.81;;;4.81;95.69
83843;BME280;73869;52.336;21.182;2024-03-02T03:47:47;100306.53;;;4.80;96.09
83843;BME280;73869;52.336;21.182;2024-03-02T03:50:14;100306.44;;;4.74;96.58
83843;BME280;73869;52.336;21.182;2024-03-02T03:52:40;100305.22;;;4.76;97.13
83843;BME280;73869;52.336;21.182;2024-03-02T03:55:08;100303.00;;;4.80;96.10
83843;BME280;73869;52.336;21.182;2024-03-02T03:57:35;100310.06;;;4.81;96.50
83843;BME280;73869;52.336;21.182;2024-03-02T04:00:03;100297.34;;;4.75;96.06
83843;BME280;73869;52.336;21.182;2024-03-02T04:02:37;100300.22;;;4.73;96.76
83843;BME280;73869;52.336;21.182;2024-03-02T04:05:06;100297.91;;;4.70;96.24
83843;BME280;73869;52.336;21.182;2024-03-02T04:07:36;100292.88;;;4.67;96.54
83843;BME280;73869;52.336;21.182;2024-03-02T04:10:07;100300.78;;;4.69;97.36
83843;BME280;73869;52.336;21.182;2024-03-02T04:12:35;100290.75;;;4.63;97.45
83843;BME280;73869;52.336;21.182;2024-03-02T04:15:03;100306.16;;;4.69;97.39
83843;BME280;73869;52.336;21.182;2024-03-02T04:17:32;100311.53;;;4.69;97.00
83843;BME280;73869;52.336;21.182;2024-03-02T04:19:59;100313.19;;;4.70;98.20
83843;BME280;73869;52.336;21.182;2024-03-02T04:22:27;100306.44;;;4.59;98.29
83843;BME280;73869;52.336;21.182;2024-03-02T04:24:54;100310.16;;;4.58;97.30
83843;BME280;73869;52.336;21.182;2024-03-02T04:27:21;100316.22;;;4.52;98.10
83843;BME280;73869;52.336;21.182;2024-03-02T04:29:48;100321.78;;;4.51;97.46
83843;BME280;73869;52.336;21.182;2024-03-02T04:32:15;100316.78;;;4.48;98.20
83843;BME280;73869;52.336;21.182;2024-03-02T04:34:41;100314.47;;;4.45;98.80
83843;BME280;73869;52.336;21.182;2024-03-02T04:37:08;100318.75;;;4.54;98.32
83843;BME280;73869;52.336;21.182;2024-03-02T04:39:36;100318.38;;;4.57;98.08
83843;BME280;73869;52.336;21.182;2024-03-02T04:42:03;100308.81;;;4.54;99.00
83843;BME280;73869;52.336;21.182;2024-03-02T04:44:30;100307.16;;;4.53;97.87
83843;BME280;73869;52.336;21.182;2024-03-02T04:46:57;100312.06;;;4.50;98.37
83843;BME280;73869;52.336;21.182;2024-03-02T04:49:24;100314.94;;;4.48;98.46
83843;BME280;73869;52.336;21.182;2024-03-02T04:51:50;100308.53;;;4.49;99.16
83843;BME280;73869;52.336;21.182;2024-03-02T04:54:17;100312.66;;;4.60;98.72
83843;BME280;73869;52.336;21.182;2024-03-02T04:56:45;100307.81;;;4.70;99.33
83843;BME280;73869;52.336;21.182;2024-03-02T04:59:15;100300.28;;;4.65;99.84
83843;BME280;73869;52.336;21.182;2024-03-02T05:01:41;100307.38;;;4.66;98.75
83843;BME280;73869;52.336;21.182;2024-03-02T05:04:08;100317.28;;;4.66;99.38
83843;BME280;73869;52.336;21.182;2024-03-02T05:06:37;100304.22;;;4.63;99.53
83843;BME280;73869;52.336;21.182;2024-03-02T05:09:04;100309.59;;;4.63;98.84
83843;BME280;73869;52.336;21.182;2024-03-02T05:11:31;100313.75;;;4.65;99.36
83843;BME280;73869;52.336;21.182;2024-03-02T05:14:19;100312.47;;;4.61;99.72
83843;BME280;73869;52.336;21.182;2024-03-02T05:16:46;100308.00;;;4.68;100.00
83843;BME280;73869;52.336;21.182;2024-03-02T05:19:13;100316.34;;;4.73;100.00
83843;BME280;73869;52.336;21.182;2024-03-02T05:21:40;100319.59;;;4.69;99.05
83843;BME280;73869;52.336;21.182;2024-03-02T05:24:07;100317.47;;;4.64;100.00
83843;BME280;73869;52.336;21.182;2024-03-02T05:26:33;100306.03;;;4.48;99.67
83843;BME280;73869;52.336;21.182;2024-03-02T05:29:00;100332.47;;;4.59;99.08
83843;BME280;73869;52.336;21.182;2024-03-02T05:31:29;100338.50;;;4.61;100.00
83843;BME280;73869;52.336;21.182;2024-03-02T05:33:56;100320.94;;;4.50;98.76
83843;BME280;73869;52.336;21.182;2024-03-02T05:36:23;100345.09;;;4.58;99.73
83843;BME280;73869;52.336;21.182;2024-03-02T05:38:50;100342.03;;;4.61;99.17
83843;BME280;73869;52.336;21.182;2024-03-02T05:41:17;100350.84;;;4.70;100.00
83843;BME280;73869;52.336;21.182;2024-03-02T05:43:43;100350.69;;;4.71;99.74
83843;BME280;73869;52.336;21.182;2024-03-02T05:46:10;100344.94;;;4.74;100.00
83843;BME280;73869;52.336;21.182;2024-03-02T05:48:38;100340.56;;;4.73;99.13
83843;BME280;73869;52.336;21.182;2024-03-02T05:51:05;100345.69;;;4.83;100.00
83843;BME280;73869;52.336;21.182;2024-03-02T05:53:32;100350.25;;;4.82;100.00
83843;BME280;73869;52.336;21.182;2024-03-02T05:55:59;100344.47;;;4.85;100.00
83843;BME280;73869;52.336;21.182;2024-03-02T05:58:26;100352.38;;;4.87;99.73
83843;BME280;73869;52.336;21.182;2024-03-02T06:01:03;100342.72;;;4.92;99.94
83843;BME280;73869;52.336;21.182;2024-03-02T06:03:31;100356.66;;;4.96;99.35
83843;BME280;73869;52.336;21.182;2024-03-02T06:05:59;100364.06;;;4.94;100.00
83843;BME280;73869;52.336;21.182;2024-03-02T06:08:26;100362.84;;;4.96;99.79
83843;BME280;73869;52.336;21.182;2024-03-02T06:10:52;100352.66;;;4.92;98.74
83843;BME280;73869;52.336;21.182;2024-03-02T06:13:19;100358.88;;;5.07;99.94
83843;BME280;73869;52.336;21.182;2024-03-02T06:15:46;100369.75;;;5.13;99.27
83843;BME280;73869;52.336;21.182;2024-03-02T06:18:13;100376.78;;;5.14;99.41
83843;BME280;73869;52.336;21.182;2024-03-02T06:20:39;100379.00;;;5.11;99.28
83843;BME280;73869;52.336;21.182;2024-03-02T06:23:08;100369.09;;;5.11;99.16
83843;BME280;73869;52.336;21.182;2024-03-02T06:25:34;100381.34;;;5.14;98.84
83843;BME280;73869;52.336;21.182;2024-03-02T06:28:05;100374.09;;;5.14;99.99
83843;BME280;73869;52.336;21.182;2024-03-02T06:31:47;100364.16;;;5.29;99.69
83843;BME280;73869;52.336;21.182;2024-03-02T06:34:14;100381.88;;;5.38;99.09
83843;BME280;73869;52.336;21.182;2024-03-02T06:36:44;100378.47;;;5.44;98.75
83843;BME280;73869;52.336;21.182;2024-03-02T06:39:12;100381.25;;;5.51;99.27
83843;BME280;73869;52.336;21.182;2024-03-02T06:41:39;100382.25;;;5.65;98.08
83843;BME280;73869;52.336;21.182;2024-03-02T06:44:05;100381.22;;;5.66;98.90
83843;BME280;73869;52.336;21.182;2024-03-02T06:46:32;100383.81;;;5.74;98.43
83843;BME280;73869;52.336;21.182;2024-03-02T06:48:59;100385.09;;;5.78;98.06
83843;BME280;73869;52.336;21.182;2024-03-02T06:51:27;100384.84;;;5.87;97.41
83843;BME280;73869;52.336;21.182;2024-03-02T06:53:54;100391.75;;;5.96;96.67
83843;BME280;73869;52.336;21.182;2024-03-02T06:56:22;100396.06;;;5.91;96.99
83843;BME280;73869;52.336;21.182;2024-03-02T06:58:49;100388.41;;;5.94;96.87
83843;BME280;73869;52.336;21.182;2024-03-02T07:01:18;100396.34;;;5.96;97.03
83843;BME280;73869;52.336;21.182;2024-03-02T07:03:45;100389.34;;;6.01;96.33
83843;BME280;73869;52.336;21.182;2024-03-02T07:06:12;100390.56;;;5.99;97.24
83843;BME280;73869;52.336;21.182;2024-03-02T07:08:39;100390.44;;;6.07;96.69
83843;BME280;73869;52.336;21.182;2024-03-02T07:11:05;100378.94;;;5.98;97.25
83843;BME280;73869;52.336;21.182;2024-03-02T07:13:34;100388.09;;;6.18;95.56
83843;BME280;73869;52.336;21.182;2024-03-02T07:16:01;100395.72;;;6.15;96.78
83843;BME280;73869;52.336;21.182;2024-03-02T07:18:53;100391.97;;;6.16;96.96
83843;BME280;73869;52.336;21.182;2024-03-02T07:21:21;100394.88;;;6.14;96.81
83843;BME280;73869;52.336;21.182;2024-03-02T07:23:49;100405.91;;;6.19;96.29
83843;BME280;73869;52.336;21.182;2024-03-02T07:26:16;100397.63;;;6.21;95.85
83843;BME280;73869;52.336;21.182;2024-03-02T07:28:45;100404.78;;;6.28;96.53
83843;BME280;73869;52.336;21.182;2024-03-02T07:31:13;100398.88;;;6.39;95.02
83843;BME280;73869;52.336;21.182;2024-03-02T07:33:40;100398.03;;;6.39;95.46
83843;BME280;73869;52.336;21.182;2024-03-02T07:36:07;100395.59;;;6.44;95.05
83843;BME280;73869;52.336;21.182;2024-03-02T07:38:34;100398.81;;;6.54;94.58
83843;BME280;73869;52.336;21.182;2024-03-02T07:41:02;100392.94;;;6.50;95.95
83843;BME280;73869;52.336;21.182;2024-03-02T07:43:30;100395.38;;;6.66;94.52
83843;BME280;73869;52.336;21.182;2024-03-02T07:45:59;100392.06;;;6.64;94.29
83843;BME280;73869;52.336;21.182;2024-03-02T07:48:26;100392.13;;;6.71;94.78
83843;BME280;73869;52.336;21.182;2024-03-02T07:50:53;100400.63;;;6.74;94.76
83843;BME280;73869;52.336;21.182;2024-03-02T07:53:20;100398.63;;;6.83;93.67
83843;BME280;73869;52.336;21.182;2024-03-02T07:55:46;100403.25;;;6.89;94.61
83843;BME280;73869;52.336;21.182;2024-03-02T07:58:13;100395.84;;;6.98;93.72
83843;BME280;73869;52.336;21.182;2024-03-02T08:00:40;100411.84;;;6.99;94.48
83843;BME280;73869;52.336;21.182;2024-03-02T08:03:08;100400.66;;;7.02;92.84
83843;BME280;73869;52.336;21.182;2024-03-02T08:05:36;100389.88;;;7.02;93.53
83843;BME280;73869;52.336;21.182;2024-03-02T08:08:04;100401.31;;;7.11;93.95
83843;BME280;73869;52.336;21.182;2024-03-02T08:10:30;100392.22;;;7.12;93.22
83843;BME280;73869;52.336;21.182;2024-03-02T08:12:56;100402.69;;;7.28;93.35
83843;BME280;73869;52.336;21.182;2024-03-02T08:15:23;100403.59;;;7.35;92.23
83843;BME280;73869;52.336;21.182;2024-03-02T08:17:50;100415.25;;;7.42;92.89
83843;BME280;73869;52.336;21.182;2024-03-02T08:20:18;100403.44;;;7.43;91.28
83843;BME280;73869;52.336;21.182;2024-03-02T08:22:45;100416.72;;;7.44;91.82
83843;BME280;73869;52.336;21.182;2024-03-02T08:25:12;100406.56;;;7.46;91.54
83843;BME280;73869;52.336;21.182;2024-03-02T08:27:39;100417.53;;;7.45;92.12
83843;BME280;73869;52.336;21.182;2024-03-02T08:30:08;100410.31;;;7.52;91.19
83843;BME280;73869;52.336;21.182;2024-03-02T08:32:36;100414.31;;;7.56;91.51
83843;BME280;73869;52.336;21.182;2024-03-02T08:35:04;100415.13;;;7.56;91.47
83843;BME280;73869;52.336;21.182;2024-03-02T08:37:32;100409.19;;;7.74;90.83
83843;BME280;73869;52.336;21.182;2024-03-02T08:39:59;100410.25;;;7.79;89.11
83843;BME280;73869;52.336;21.182;2024-03-02T08:42:26;100415.69;;;7.86;90.68
83843;BME280;73869;52.336;21.182;2024-03-02T08:44:53;100412.78;;;7.94;88.75
83843;BME280;73869;52.336;21.182;2024-03-02T08:47:19;100414.72;;;8.00;89.04
83843;BME280;73869;52.336;21.182;2024-03-02T08:49:46;100429.94;;;8.14;88.82
83843;BME280;73869;52.336;21.182;2024-03-02T08:52:13;100428.50;;;8.18;89.09
83843;BME280;73869;52.336;21.182;2024-03-02T08:54:41;100425.44;;;8.28;87.38
83843;BME280;73869;52.336;21.182;2024-03-02T08:57:07;100429.31;;;8.18;87.86
83843;BME280;73869;52.336;21.182;2024-03-02T08:59:34;100428.50;;;8.18;87.16
83843;BME280;73869;52.336;21.182;2024-03-02T09:02:01;100427.47;;;8.19;89.18
83843;BME280;73869;52.336;21.182;2024-03-02T09:04:28;100435.66;;;8.32;87.23
83843;BME280;73869;52.336;21.182;2024-03-02T09:06:55;100425.22;;;8.29;88.31
83843;BME280;73869;52.336;21.182;2024-03-02T09:09:21;100423.63;;;8.48;87.64
83843;BME280;73869;52.336;21.182;2024-03-02T09:11:49;100425.47;;;8.47;87.44
83843;BME280;73869;52.336;21.182;2024-03-02T09:14:16;100432.34;;;8.50;86.66
83843;BME280;73869;52.336;21.182;2024-03-02T09:16:43;100428.59;;;8.38;86.66
83843;BME280;73869;52.336;21.182;2024-03-02T09:19:10;100427.03;;;8.22;86.62
83843;BME280;73869;52.336;21.182;2024-03-02T09:21:36;100430.00;;;8.27;88.02
83843;BME280;73869;52.336;21.182;2024-03-02T09:24:05;100427.09;;;8.29;87.84
83843;BME280;73869;52.336;21.182;2024-03-02T09:26:32;100419.19;;;8.27;87.81
83843;BME280;73869;52.336;21.182;2024-03-02T09:29:00;100425.25;;;8.36;87.13
83843;BME280;73869;52.336;21.182;2024-03-02T09:31:26;100424.38;;;8.29;86.53
83843;BME280;73869;52.336;21.182;2024-03-02T09:33:53;100425.88;;;8.31;87.89
83843;BME280;73869;52.336;21.182;2024-03-02T09:36:21;100422.34;;;8.44;86.36
83843;BME280;73869;52.336;21.182;2024-03-02T09:38:49;100426.13;;;8.49;86.16
83843;BME280;73869;52.336;21.182;2024-03-02T09:41:15;100431.13;;;8.59;87.71
83843;BME280;73869;52.336;21.182;2024-03-02T09:43:42;100429.88;;;8.74;85.64
83843;BME280;73869;52.336;21.182;2024-03-02T09:46:10;100427.81;;;8.76;85.79
83843;BME280;73869;52.336;21.182;2024-03-02T09:48:38;100430.31;;;8.71;85.90
83843;BME280;73869;52.336;21.182;2024-03-02T09:51:05;100434.88;;;8.77;84.59
83843;BME280;73869;52.336;21.182;2024-03-02T09:53:33;100435.72;;;8.84;84.95
83843;BME280;73869;52.336;21.182;2024-03-02T09:56:00;100433.66;;;8.99;86.96
83843;BME280;73869;52.336;21.182;2024-03-02T09:58:27;100430.94;;;9.06;84.55
83843;BME280;73869;52.336;21.182;2024-03-02T10:00:54;100426.38;;;9.13;85.41
83843;BME280;73869;52.336;21.182;2024-03-02T10:03:22;100415.94;;;9.16;84.65
83843;BME280;73869;52.336;21.182;2024-03-02T10:05:49;100419.88;;;9.27;83.43
83843;BME280;73869;52.336;21.182;2024-03-02T10:08:17;100414.66;;;9.38;83.81
83843;BME280;73869;52.336;21.182;2024-03-02T10:10:42;100413.56;;;9.52;84.02
83843;BME280;73869;52.336;21.182;2024-03-02T10:13:10;100406.47;;;9.51;82.97
83843;BME280;73869;52.336;21.182;2024-03-02T10:15:38;100407.94;;;9.61;83.08
83843;BME280;73869;52.336;21.182;2024-03-02T10:18:08;100407.94;;;9.61;82.08
83843;BME280;73869;52.336;21.182;2024-03-02T10:20:37;100405.00;;;9.62;80.94
83843;BME280;73869;52.336;21.182;2024-03-02T10:23:12;100401.00;;;9.71;82.72
83843;BME280;73869;52.336;21.182;2024-03-02T10:25:40;100405.56;;;9.71;81.60
83843;BME280;73869;52.336;21.182;2024-03-02T10:28:07;100404.25;;;9.93;82.49
83843;BME280;73869;52.336;21.182;2024-03-02T10:30:34;100399.84;;;9.98;82.80
83843;BME280;73869;52.336;21.182;2024-03-02T10:33:01;100389.00;;;9.98;81.85
83843;BME280;73869;52.336;21.182;2024-03-02T10:35:28;100393.38;;;9.99;81.45
83843;BME280;73869;52.336;21.182;2024-03-02T10:37:58;100395.44;;;10.04;81.30
83843;BME280;73869;52.336;21.182;2024-03-02T10:40:26;100395.00;;;10.13;79.93
83843;BME280;73869;52.336;21.182;2024-03-02T10:42:53;100388.13;;;10.11;79.47
83843;BME280;73869;52.336;21.182;2024-03-02T10:45:21;100373.28;;;10.07;82.40
83843;BME280;73869;52.336;21.182;2024-03-02T10:47:49;100388.69;;;10.26;81.58
83843;BME280;73869;52.336;21.182;2024-03-02T10:50:17;100378.06;;;10.18;79.82
83843;BME280;73869;52.336;21.182;2024-03-02T10:52:49;100373.16;;;10.33;81.10
83843;BME280;73869;52.336;21.182;2024-03-02T10:55:17;100371.91;;;10.35;81.25
83843;BME280;73869;52.336;21.182;2024-03-02T10:57:50;100370.28;;;10.28;78.20
83843;BME280;73869;52.336;21.182;2024-03-02T11:00:18;100370.34;;;10.15;80.93
83843;BME280;73869;52.336;21.182;2024-03-02T11:02:51;100377.63;;;10.21;80.52
83843;BME280;73869;52.336;21.182;2024-03-02T11:05:26;100371.06;;;10.35;79.84
83843;BME280;73869;52.336;21.182;2024-03-02T11:07:57;100368.13;;;10.36;79.21
83843;BME280;73869;52.336;21.182;2024-03-02T11:10:28;100373.91;;;10.46;80.04
83843;BME280;73869;52.336;21.182;2024-03-02T11:13:02;100369.72;;;10.50;80.50
83843;BME280;73869;52.336;21.182;2024-03-02T11:15:31;100369.16;;;10.66;81.40
83843;BME280;73869;52.336;21.182;2024-03-02T11:18:01;100368.81;;;10.56;80.10
83843;BME280;73869;52.336;21.182;2024-03-02T11:20:31;100368.97;;;10.37;78.99
83843;BME280;73869;52.336;21.182;2024-03-02T11:23:04;100376.84;;;10.45;79.35
83843;BME280;73869;52.336;21.182;2024-03-02T11:25:32;100382.09;;;10.40;79.98
83843;BME280;73869;52.336;21.182;2024-03-02T11:28:01;100372.22;;;10.52;80.16
83843;BME280;73869;52.336;21.182;2024-03-02T11:30:50;100378.00;;;10.62;78.45
83843;BME280;73869;52.336;21.182;2024-03-02T11:33:23;100373.53;;;10.67;79.56
83843;BME280;73869;52.336;21.182;2024-03-02T11:35:52;100383.91;;;10.77;79.25
83843;BME280;73869;52.336;21.182;2024-03-02T11:38:19;100379.19;;;10.91;79.16
83843;BME280;73869;52.336;21.182;2024-03-02T11:40:47;100369.28;;;10.78;77.53
83843;BME280;73869;52.336;21.182;2024-03-02T11:43:14;100369.34;;;10.96;79.42
83843;BME280;73869;52.336;21.182;2024-03-02T11:45:43;100364.81;;;11.08;78.07
83843;BME280;73869;52.336;21.182;2024-03-02T11:48:13;100356.72;;;11.02;76.33
83843;BME280;73869;52.336;21.182;2024-03-02T11:50:41;100352.13;;;11.02;78.17
83843;BME280;73869;52.336;21.182;2024-03-02T11:53:10;100354.03;;;11.20;78.21
83843;BME280;73869;52.336;21.182;2024-03-02T11:55:38;100338.13;;;11.23;78.30
83843;BME280;73869;52.336;21.182;2024-03-02T11:58:07;100340.38;;;11.26;76.75
83843;BME280;73869;52.336;21.182;2024-03-02T12:00:34;100339.25;;;11.16;77.44
83843;BME280;73869;52.336;21.182;2024-03-02T12:03:02;100325.44;;;11.17;76.57
83843;BME280;73869;52.336;21.182;2024-03-02T12:05:30;100333.44;;;11.12;76.88
83843;BME280;73869;52.336;21.182;2024-03-02T12:07:57;100325.94;;;11.08;76.47
83843;BME280;73869;52.336;21.182;2024-03-02T12:10:25;100333.44;;;11.12;77.95
83843;BME280;73869;52.336;21.182;2024-03-02T12:12:56;100332.56;;;10.94;78.08
83843;BME280;73869;52.336;21.182;2024-03-02T12:15:25;100326.31;;;10.93;78.11
83843;BME280;73869;52.336;21.182;2024-03-02T12:17:53;100313.59;;;10.87;76.75
83843;BME280;73869;52.336;21.182;2024-03-02T12:20:20;100316.59;;;10.79;78.07
83843;BME280;73869;52.336;21.182;2024-03-02T12:22:50;100332.72;;;10.74;79.53
83843;BME280;73869;52.336;21.182;2024-03-02T12:25:17;100343.44;;;10.94;79.76
83843;BME280;73869;52.336;21.182;2024-03-02T12:27:45;100348.06;;;10.93;79.05
83843;BME280;73869;52.336;21.182;2024-03-02T12:30:12;100352.13;;;11.02;78.89
83843;BME280;73869;52.336;21.182;2024-03-02T12:32:41;100349.88;;;10.99;78.57
83843;BME280;73869;52.336;21.182;2024-03-02T12:35:08;100360.59;;;11.12;79.87
83843;BME280;73869;52.336;21.182;2024-03-02T12:37:43;100361.97;;;11.21;78.93
83843;BME280;73869;52.336;21.182;2024-03-02T12:40:10;100356.38;;;11.34;77.08
83843;BME280;73869;52.336;21.182;2024-03-02T12:42:38;100354.66;;;11.40;77.75
83843;BME280;73869;52.336;21.182;2024-03-02T12:45:05;100361.91;;;11.46;76.52
83843;BME280;73869;52.336;21.182;2024-03-02T12:47:33;100364.63;;;11.46;77.39
83843;BME280;73869;52.336;21.182;2024-03-02T12:50:02;100359.44;;;11.44;77.11
83843;BME280;73869;52.336;21.182;2024-03-02T12:56:44;100356.47;;;11.28;77.30